Terminal Aerodrome Forecast
Issued by NWS

Home | Current Version | Previous Version | Text Only | Print | Product List | Glossary On
Versions: 1 2 3 4 5 6 7 8 9 10 11 12 13 14 15
000
FTUS45 KABQ 181100
TAFLVS
TAF
KLVS 181125Z 1812/1912 36005KT P6SM SKC
     FM181900 11012KT P6SM BKN080
     FM190300 15010KT P6SM VCSH SCT025 OVC040
     FM190800 21010KT P6SM VCSH SCT007 OVC030=

USA.gov is the U.S. government's official web portal to all federal, state and local government web resources and services.